This is the latest recevied weather packets stored in our database for station/object VK3BKO-13. If no packets are shown the sender has not sent any weather packets the latest 10 day(s).
| Time | Temp. | Humidity | Pressure | Rain* | Wind** | Luminosity | Snow |
|---|---|---|---|---|---|---|---|
| 1777667523 | 16.67° C | 64% | 1018.3 hPa | 0 mm | - | 0 W/m² | - |
| 1777666624 | 13.33° C | 78% | 1018.3 hPa | 0 mm | - | 0 W/m² | - |
| 1777665724 | 13.33° C | 78% | 1018.3 hPa | 0 mm | - | 0 W/m² | - |
| 1777664824 | 13.33° C | 77% | 1018.3 hPa | 0 mm | - | 0 W/m² | - |
| 1777663924 | 13.33° C | 77% | 1018.3 hPa | 0 mm | - | 0 W/m² | - |
| 1777663024 | 13.33° C | 76% | 1018.3 hPa | 0 mm | - | 0 W/m² | - |
| 1777662124 | 13.89° C | 75% | 1018.3 hPa | 0 mm | - | 0 W/m² | - |
| 1777661224 | 14.44° C | 73% | 1018.3 hPa | 0 mm | - | 0 W/m² | - |
| 1777660323 | 14.44° C | 73% | 1018.7 hPa | 0 mm | - | 0 W/m² | - |
| 1777659425 | 14.44° C | 72% | 1018.3 hPa | 0 mm | - | 0 W/m² | - |
| 1777658524 | 14.44° C | 71% | 1018.3 hPa | 0 mm | - | 0 W/m² | - |
| 1777657624 | 15.56° C | 68% | 1018.7 hPa | 0 mm | - | 0 W/m² | - |
| 1777656724 | 16.67° C | 64% | 1018.7 hPa | 0 mm | - | 0 W/m² | - |
| 1777655823 | 17.22° C | 62% | 1018.7 hPa | 0 mm | - | 0 W/m² | - |
| 1777654923 | 17.78° C | 60% | 1018.7 hPa | 0 mm | - | 0 W/m² | - |
| 1777654023 | 18.89° C | 57% | 1019 hPa | 0 mm | - | 0 W/m² | - |
| 1777653125 | 18.89° C | 57% | 1019.3 hPa | 0 mm | - | 0 W/m² | - |
| 1777652224 | 18.33° C | 58% | 1019 hPa | 0 mm | - | 0 W/m² | - |
| 1777651324 | 18.89° C | 58% | 1019.3 hPa | 0 mm | - | 0 W/m² | - |
| 1777650424 | 18.89° C | 57% | 1019.7 hPa | 0 mm | - | 0 W/m² | - |
| 1777649524 | 19.44° C | 56% | 1019.7 hPa | 0 mm | - | 0 W/m² | - |
| 1777648624 | 19.44° C | 56% | 1019.7 hPa | 0 mm | - | 0 W/m² | - |
| 1777647724 | 18.89° C | 57% | 1020 hPa | 0 mm | - | 0 W/m² | - |
| 1777646823 | 17.78° C | 62% | 1020 hPa | 0 mm | - | 0 W/m² | - |
| 1777645924 | 14.44° C | 74% | 1020.4 hPa | 0 mm | - | 0 W/m² | - |
* Rain latest hour (hover to see other rain measurements)
** Current wind speed in m/s (hover to see current wind gust speed)